createdAt,value
2023-03-17T00:00:43.409Z,58.1
2023-03-17T00:02:00.433Z,58.2
2023-03-17T00:03:17.435Z,58.3
2023-03-17T00:04:34.427Z,58.2
2023-03-17T00:05:51.408Z,58.2
2023-03-17T00:07:08.425Z,58.1
2023-03-17T00:08:25.429Z,58.2
2023-03-17T00:09:42.410Z,58.3
2023-03-17T00:10:59.402Z,58.6
2023-03-17T00:12:16.429Z,58.8
2023-03-17T00:13:33.400Z,58.9
2023-03-17T00:14:50.408Z,59
2023-03-17T00:16:07.598Z,59.2
2023-03-17T00:17:24.460Z,59.1
2023-03-17T00:18:41.416Z,59
2023-03-17T00:19:58.408Z,58.8
2023-03-17T00:21:15.410Z,58.7
2023-03-17T00:22:32.436Z,58.7
2023-03-17T00:23:49.398Z,58.7
2023-03-17T00:25:06.390Z,58.9
2023-03-17T00:26:23.471Z,59.3
2023-03-17T00:27:40.484Z,59.6
2023-03-17T00:28:57.405Z,59.8
2023-03-17T00:30:14.409Z,60.1
2023-03-17T00:31:31.470Z,60.2
2023-03-17T00:32:48.513Z,59.9
2023-03-17T00:34:05.460Z,59.5
2023-03-17T00:35:22.426Z,59.2
2023-03-17T00:36:39.702Z,58.9
2023-03-17T00:37:57.353Z,58.6
2023-03-17T00:39:17.027Z,58.6
2023-03-17T00:40:33.459Z,58.5
2023-03-17T00:41:50.440Z,58.4
2023-03-17T00:43:07.442Z,58.5
2023-03-17T00:44:24.521Z,58.6
2023-03-17T00:45:41.478Z,58.5
2023-03-17T00:46:58.592Z,58.2
2023-03-17T00:48:15.499Z,58
2023-03-17T00:49:32.562Z,57.8
2023-03-17T00:50:49.429Z,57.8
2023-03-17T00:52:06.493Z,57.9
2023-03-17T00:53:23.530Z,58.1
2023-03-17T00:54:40.464Z,58.2
2023-03-17T00:55:57.436Z,58.2
2023-03-17T00:57:14.547Z,58.3
2023-03-17T00:58:31.458Z,58.2
2023-03-17T00:59:48.884Z,58.3
2023-03-17T01:01:05.482Z,58.2
2023-03-17T01:02:22.545Z,58
2023-03-17T01:03:39.477Z,57.9
2023-03-17T01:05:05.655Z,57.7
2023-03-17T01:06:13.449Z,57.6
2023-03-17T01:07:30.540Z,57.2
2023-03-17T01:08:47.481Z,57
2023-03-17T01:10:04.482Z,57.2
2023-03-17T01:11:21.887Z,57.4
2023-03-17T01:12:38.596Z,57.7
2023-03-17T01:13:55.468Z,57.9
2023-03-17T01:15:12.510Z,58
2023-03-17T01:16:29.603Z,57.9
2023-03-17T01:17:46.487Z,58.1
2023-03-17T01:19:03.573Z,57.8
2023-03-17T01:20:20.482Z,57.8
2023-03-17T01:21:37.502Z,57.8
2023-03-17T01:22:54.498Z,57.8
2023-03-17T01:24:11.778Z,57.7
2023-03-17T01:25:28.507Z,57.6
2023-03-17T01:26:45.470Z,57.6
2023-03-17T01:28:02.481Z,57.8
2023-03-17T01:29:19.566Z,57.8
2023-03-17T01:30:36.539Z,57.9
2023-03-17T01:31:53.561Z,58
2023-03-17T01:33:10.504Z,58
2023-03-17T01:34:27.547Z,58
2023-03-17T01:35:44.595Z,58
2023-03-17T01:37:01.490Z,58
2023-03-17T01:38:18.494Z,57.8
2023-03-17T01:39:35.579Z,57.6
2023-03-17T01:40:52.539Z,57.6
2023-03-17T01:42:09.542Z,57.6
2023-03-17T01:43:26.502Z,57.8
2023-03-17T01:44:43.554Z,57.9
2023-03-17T01:46:00.578Z,57.8
2023-03-17T01:47:17.516Z,57.5
2023-03-17T01:48:34.580Z,57.1
2023-03-17T01:49:51.543Z,56.7
2023-03-17T01:51:08.528Z,56.4
2023-03-17T01:52:25.523Z,56.4
2023-03-17T01:53:42.543Z,56.5
2023-03-17T01:55:02.332Z,56.7
2023-03-17T01:56:20.006Z,56.9
2023-03-17T01:57:36.650Z,57.1
2023-03-17T01:58:53.529Z,57.3
2023-03-17T02:00:10.545Z,57.5
2023-03-17T02:01:28.083Z,57.6
2023-03-17T02:02:44.665Z,57.7
2023-03-17T02:04:01.801Z,57.6
2023-03-17T02:05:18.574Z,57.5
2023-03-17T02:06:44.649Z,57.3
2023-03-17T02:07:54.562Z,57.1
2023-03-17T02:09:11.758Z,57.1
2023-03-17T02:10:29.149Z,57.2
2023-03-17T02:11:45.632Z,57.2
2023-03-17T02:13:02.735Z,57.5
2023-03-17T02:14:19.870Z,57.9
2023-03-17T02:15:36.727Z,58.2
2023-03-17T02:16:53.850Z,58.5
2023-03-17T02:18:10.739Z,58.8
2023-03-17T02:19:27.825Z,59
2023-03-17T02:22:45.602Z,59.4
2023-03-17T02:24:02.646Z,59.5
2023-03-17T02:25:20.295Z,59.5
2023-03-17T02:26:37.642Z,59.6
2023-03-17T02:27:54.810Z,59.8
2023-03-17T02:29:11.721Z,60.2
2023-03-17T02:30:29.128Z,60.6
2023-03-17T02:31:45.608Z,60.9
2023-03-17T02:33:02.787Z,61
2023-03-17T02:34:19.723Z,60.9
2023-03-17T02:35:37.138Z,60.6
2023-03-17T02:36:54.398Z,60.5
2023-03-17T02:38:11.670Z,60.5
2023-03-17T02:39:28.579Z,60.7
2023-03-17T02:40:45.727Z,60.6
2023-03-17T02:42:02.695Z,60.6
2023-03-17T02:43:19.625Z,60.3
2023-03-17T02:44:36.580Z,59.9
2023-03-17T02:45:53.632Z,59.5
2023-03-17T02:47:10.744Z,59
2023-03-17T02:48:27.613Z,58.6
2023-03-17T02:49:44.937Z,58.3
2023-03-17T02:51:01.712Z,57.6
2023-03-17T02:52:18.691Z,57.3
2023-03-17T02:53:35.775Z,57.4
2023-03-17T02:54:52.676Z,57.8
2023-03-17T02:56:09.736Z,58.2
2023-03-17T02:57:26.660Z,58.7
2023-03-17T02:58:43.652Z,59.3
2023-03-17T03:00:00.744Z,60
2023-03-17T03:01:17.698Z,60.4
2023-03-17T03:02:34.836Z,60.7
2023-03-17T03:03:52.029Z,60.6
2023-03-17T03:05:08.665Z,60.4
2023-03-17T03:06:25.745Z,60.1
2023-03-17T03:07:42.677Z,60
2023-03-17T03:08:59.695Z,60
2023-03-17T03:10:16.605Z,59.9
2023-03-17T03:11:33.706Z,59.9
2023-03-17T03:12:50.660Z,60
2023-03-17T03:14:07.620Z,60.1
2023-03-17T03:15:24.613Z,60.2
2023-03-17T03:16:41.696Z,60.3
2023-03-17T03:17:58.631Z,60.4
2023-03-17T03:19:15.633Z,60.5
2023-03-17T03:20:32.779Z,60.4
2023-03-17T03:21:49.743Z,60.3
2023-03-17T03:23:06.654Z,60.4
2023-03-17T03:24:23.675Z,60.5
2023-03-17T03:25:40.627Z,60.8
2023-03-17T03:26:57.712Z,61
2023-03-17T03:28:14.654Z,61.3
2023-03-17T03:29:31.637Z,61.6
2023-03-17T03:30:48.761Z,61.9
2023-03-17T03:32:05.676Z,62.2
2023-03-17T03:33:22.675Z,62.4
2023-03-17T03:34:39.658Z,62.7
2023-03-17T03:35:56.718Z,63.2
2023-03-17T03:37:14.176Z,63.2
2023-03-17T03:38:30.733Z,62.9
2023-03-17T03:39:47.679Z,62.7
2023-03-17T03:41:04.966Z,62.7
2023-03-17T03:42:21.712Z,62.9
2023-03-17T03:43:38.653Z,63
2023-03-17T03:44:55.775Z,63.4
2023-03-17T03:46:12.689Z,63.3
2023-03-17T03:47:29.665Z,63.1
2023-03-17T03:48:46.669Z,63
2023-03-17T03:50:03.669Z,63
2023-03-17T03:51:20.762Z,63
2023-03-17T03:52:37.715Z,62.7
2023-03-17T03:53:55.305Z,62.4
2023-03-17T03:55:11.744Z,62.3
2023-03-17T03:56:28.744Z,62.1
2023-03-17T03:57:45.663Z,62
2023-03-17T03:59:02.684Z,61.7
2023-03-17T04:00:19.695Z,61.6
2023-03-17T04:01:36.850Z,61.4
2023-03-17T04:02:53.947Z,61.1
2023-03-17T04:04:10.795Z,60.9
2023-03-17T04:05:28.224Z,60.8
2023-03-17T04:06:44.809Z,60.7
2023-03-17T04:08:02.198Z,61
2023-03-17T04:09:19.373Z,61.3
2023-03-17T04:10:36.724Z,61.6
2023-03-17T04:11:53.678Z,61.7
2023-03-17T04:13:10.704Z,61.8
2023-03-17T04:14:27.739Z,61.8
2023-03-17T04:15:45.464Z,61.9
2023-03-17T04:17:02.695Z,61.9
2023-03-17T04:18:19.729Z,62.1
2023-03-17T04:19:36.714Z,62.1
2023-03-17T04:20:53.921Z,62.1
2023-03-17T04:22:10.748Z,61.9
2023-03-17T04:23:27.698Z,61.9
2023-03-17T04:24:44.720Z,62
2023-03-17T04:26:01.840Z,62.2
2023-03-17T04:27:18.762Z,62.6
2023-03-17T04:28:35.776Z,62.8
2023-03-17T04:29:52.718Z,63
2023-03-17T04:31:10.812Z,63.2
2023-03-17T04:32:27.788Z,63.4
2023-03-17T04:33:45.006Z,63.4
2023-03-17T04:35:01.739Z,63.3
2023-03-17T04:36:18.749Z,63.3
2023-03-17T04:37:35.961Z,63.2
2023-03-17T04:38:52.804Z,63.2
2023-03-17T04:40:09.740Z,63.1
2023-03-17T04:41:26.862Z,63.2
2023-03-17T04:42:43.718Z,63.3
2023-03-17T04:44:00.720Z,63.3
2023-03-17T04:45:18.264Z,63.2
2023-03-17T04:46:34.795Z,63.3
2023-03-17T04:47:51.970Z,63.2
2023-03-17T04:49:09.398Z,63.1
2023-03-17T04:50:26.766Z,63
2023-03-17T04:51:43.805Z,63
2023-03-17T04:53:00.777Z,62.9
2023-03-17T04:54:17.769Z,62.9
2023-03-17T04:55:34.752Z,62.9
2023-03-17T04:56:51.778Z,63
2023-03-17T04:58:10.325Z,63.1
2023-03-17T04:59:25.785Z,63.3
2023-03-17T05:00:42.837Z,63.3
2023-03-17T05:01:59.873Z,63.1
2023-03-17T05:03:25.952Z,62.8
2023-03-17T05:04:33.742Z,62.6
2023-03-17T05:05:50.783Z,62.4
2023-03-17T05:07:07.788Z,62.2
2023-03-17T05:08:24.764Z,62.1
2023-03-17T05:09:41.752Z,61.5
2023-03-17T05:10:58.854Z,61.2
2023-03-17T05:12:15.879Z,60.7
2023-03-17T05:13:32.860Z,60.5
2023-03-17T05:14:49.787Z,60.3
2023-03-17T05:16:07.283Z,60.2
2023-03-17T05:17:23.875Z,60
2023-03-17T05:18:40.771Z,59.4
2023-03-17T05:19:57.811Z,59.2
2023-03-17T05:21:14.877Z,58.5
2023-03-17T05:22:31.827Z,57.6
2023-03-17T05:23:48.811Z,56.9
2023-03-17T05:25:06.259Z,56.7
2023-03-17T05:26:22.783Z,56.4
2023-03-17T05:27:39.965Z,56.1
2023-03-17T05:28:57.621Z,55.8
2023-03-17T05:30:14.783Z,55.5
2023-03-17T05:31:31.794Z,55
2023-03-17T05:32:48.891Z,54.6
2023-03-17T05:34:05.826Z,53.8
2023-03-17T05:35:22.810Z,53.1
2023-03-17T05:36:40.732Z,52.7
2023-03-17T05:37:57.978Z,52.1
2023-03-17T05:39:15.149Z,50.7
2023-03-17T05:40:32.112Z,49.8
2023-03-17T05:41:48.867Z,49
2023-03-17T05:43:05.884Z,48.4
2023-03-17T05:44:22.882Z,48.2
2023-03-17T05:45:39.827Z,48.3
2023-03-17T05:46:57.522Z,48.4
2023-03-17T05:48:14.848Z,48.2
2023-03-17T05:49:31.810Z,48.2
2023-03-17T05:50:48.935Z,48.1
2023-03-17T05:52:05.868Z,48
2023-03-17T05:53:22.877Z,47.3
2023-03-17T05:54:40.013Z,46.8
2023-03-17T05:55:56.911Z,46.7
2023-03-17T05:57:13.946Z,46
2023-03-17T05:58:31.010Z,45.3
2023-03-17T05:59:47.871Z,44.7
2023-03-17T06:01:04.822Z,44.3
2023-03-17T06:02:21.911Z,44.1
2023-03-17T06:03:38.995Z,44
2023-03-17T06:04:55.971Z,44
2023-03-17T06:06:13.617Z,43.6
2023-03-17T06:07:41.104Z,43.3
2023-03-17T06:08:51.238Z,43.3
2023-03-17T06:10:08.283Z,43.4
2023-03-17T06:11:26.620Z,43.4
2023-03-17T06:12:43.498Z,43.7
2023-03-17T06:14:01.707Z,44.5
2023-03-17T06:15:19.927Z,44.8
2023-03-17T06:16:37.226Z,44.8
2023-03-17T06:17:54.350Z,44.9
2023-03-17T06:19:12.340Z,44.6
2023-03-17T06:20:30.304Z,44.3
2023-03-17T06:21:47.982Z,43.7
2023-03-17T06:23:06.108Z,44
2023-03-17T06:24:23.374Z,44.7
2023-03-17T06:25:40.340Z,45.3
2023-03-17T06:26:57.275Z,45.6
2023-03-17T06:28:14.310Z,45.6
2023-03-17T06:29:31.777Z,46.1
2023-03-17T06:30:49.338Z,45.9
2023-03-17T06:32:19.107Z,45.5
2023-03-17T06:33:22.948Z,45.9
2023-03-17T06:34:39.936Z,46.5
2023-03-17T06:35:57.049Z,46.9
2023-03-17T06:37:13.914Z,47.3
2023-03-17T06:38:30.897Z,47.2
2023-03-17T06:39:47.883Z,46.9
2023-03-17T06:41:05.102Z,47.4
2023-03-17T06:42:22.194Z,48.2
2023-03-17T06:43:38.904Z,48.3
2023-03-17T06:44:55.978Z,48.3
2023-03-17T06:46:12.958Z,48.2
2023-03-17T06:47:29.920Z,48
2023-03-17T06:48:46.926Z,47.6
2023-03-17T06:50:04.035Z,48
2023-03-17T06:51:21.029Z,47.7
2023-03-17T06:52:37.937Z,47.3
2023-03-17T06:53:54.958Z,47.2
2023-03-17T06:55:11.940Z,46.8
2023-03-17T06:56:30.415Z,46.2
2023-03-17T06:57:45.912Z,46.1
2023-03-17T06:59:03.007Z,46.4
2023-03-17T07:00:20.019Z,46.4
2023-03-17T07:01:36.931Z,46.6
2023-03-17T07:02:53.928Z,46.8
2023-03-17T07:04:11.009Z,47.2
2023-03-17T07:05:29.024Z,46.7
2023-03-17T07:06:46.503Z,46.5
2023-03-17T07:08:02.915Z,46.6
2023-03-17T07:09:20.008Z,46.3
2023-03-17T07:10:37.008Z,46.4
2023-03-17T07:11:53.989Z,46.7
2023-03-17T07:13:10.932Z,46.5
2023-03-17T07:14:27.920Z,46.3
2023-03-17T07:15:45.015Z,46.3
2023-03-17T07:17:01.966Z,45.6
2023-03-17T07:18:19.212Z,45.3
2023-03-17T07:19:36.358Z,45.4
2023-03-17T07:20:52.950Z,45.6
2023-03-17T07:22:11.139Z,45.6
2023-03-17T07:23:27.992Z,45.5
2023-03-17T07:24:45.021Z,44.6
2023-03-17T07:26:01.954Z,43.9
2023-03-17T07:27:20.811Z,44.3
2023-03-17T07:28:35.975Z,44.3
2023-03-17T07:29:53.119Z,44.3
2023-03-17T07:31:10.031Z,44.6
2023-03-17T07:32:27.029Z,44.5
2023-03-17T07:33:44.030Z,44.9
2023-03-17T07:35:01.399Z,45.3
2023-03-17T07:36:17.964Z,45.1
2023-03-17T07:37:35.051Z,44.8
2023-03-17T07:38:53.115Z,44.9
2023-03-17T07:40:09.987Z,45.3
2023-03-17T07:41:27.887Z,45.6
2023-03-17T07:42:45.026Z,45
2023-03-17T07:44:02.040Z,44.5
2023-03-17T07:45:18.993Z,45
2023-03-17T07:46:36.015Z,45.3
2023-03-17T07:47:53.229Z,45.5
2023-03-17T07:49:10.001Z,45.7
2023-03-17T07:50:26.979Z,45.6
2023-03-17T07:51:44.040Z,45.2
2023-03-17T07:53:01.028Z,45
2023-03-17T07:54:17.968Z,44.6
2023-03-17T07:55:35.009Z,44.2
2023-03-17T07:56:52.032Z,44
2023-03-17T07:58:09.512Z,44.4
2023-03-17T07:59:27.045Z,43.5
2023-03-17T08:00:44.263Z,43
2023-03-17T08:02:01.383Z,42.9
2023-03-17T08:03:18.136Z,43.3
2023-03-17T08:04:35.505Z,44
2023-03-17T08:05:52.132Z,44.2
2023-03-17T08:07:09.646Z,43.8
2023-03-17T08:08:27.096Z,43.3
2023-03-17T08:09:44.305Z,42.7
2023-03-17T08:11:01.165Z,42.5
2023-03-17T08:12:18.096Z,42.5
2023-03-17T08:13:35.079Z,42.9
2023-03-17T08:14:52.161Z,42.7
2023-03-17T08:16:09.251Z,42.3
2023-03-17T08:17:26.185Z,42.1
2023-03-17T08:18:43.112Z,42
2023-03-17T08:20:00.582Z,41.7
2023-03-17T08:21:18.605Z,42.4
2023-03-17T08:22:36.481Z,42.6
2023-03-17T08:23:53.805Z,42.9
2023-03-17T08:25:11.825Z,43.3
2023-03-17T08:26:28.944Z,43.8
2023-03-17T08:27:47.713Z,44.1
2023-03-17T08:29:06.462Z,44.1
2023-03-17T08:30:24.431Z,44.3
2023-03-17T08:31:41.537Z,43.6
2023-03-17T08:32:58.656Z,43.8
2023-03-17T08:34:16.706Z,43
2023-03-17T08:35:34.106Z,43.1
2023-03-17T08:36:51.086Z,42.5
2023-03-17T08:38:09.886Z,42.3
2023-03-17T08:39:27.534Z,42.5
2023-03-17T08:40:45.092Z,41.9
2023-03-17T08:42:04.203Z,41.6
2023-03-17T08:43:21.916Z,42
2023-03-17T08:44:42.848Z,41.9
2023-03-17T08:45:57.596Z,41.5
2023-03-17T08:47:14.508Z,41
2023-03-17T08:48:31.514Z,40
2023-03-17T08:49:48.536Z,39.9
2023-03-17T08:51:06.154Z,39.8
2023-03-17T08:52:23.384Z,39.9
2023-03-17T08:53:40.813Z,39.8
2023-03-17T08:54:59.143Z,39.5
2023-03-17T08:56:17.617Z,40
2023-03-17T08:57:34.859Z,40.1
2023-03-17T08:58:52.890Z,40.5
2023-03-17T09:00:10.680Z,40.6
2023-03-17T09:01:29.281Z,41
2023-03-17T09:02:47.081Z,41.4
2023-03-17T09:04:05.873Z,41
2023-03-17T09:05:22.737Z,40.9
2023-03-17T09:06:46.436Z,41
2023-03-17T09:07:57.543Z,41
2023-03-17T09:09:15.386Z,40.9
2023-03-17T09:10:32.812Z,40.3
2023-03-17T09:11:49.514Z,40
2023-03-17T09:13:06.696Z,40.4
2023-03-17T09:14:23.600Z,40.1
2023-03-17T09:15:41.558Z,40.1
2023-03-17T09:16:58.505Z,40.5
2023-03-17T09:18:16.036Z,40.2
2023-03-17T09:19:34.056Z,40.1
2023-03-17T09:20:51.988Z,40.3
2023-03-17T09:22:10.043Z,40.2
2023-03-17T09:23:28.371Z,40.7
2023-03-17T09:24:45.754Z,40.1
2023-03-17T09:26:03.985Z,39.8
2023-03-17T09:27:21.591Z,39.8
2023-03-17T09:28:38.688Z,39.9
2023-03-17T09:29:55.548Z,40.1
2023-03-17T09:31:12.795Z,39.8
2023-03-17T09:32:31.672Z,39.7
2023-03-17T09:33:48.557Z,39.9
2023-03-17T09:35:05.585Z,39.7
2023-03-17T09:36:23.228Z,38.9
2023-03-17T09:37:40.604Z,37.9
2023-03-17T09:38:58.492Z,37.1
2023-03-17T09:40:15.690Z,37.4
2023-03-17T09:41:34.895Z,37.4
2023-03-17T09:42:51.923Z,37.9
2023-03-17T09:44:09.797Z,37.8
2023-03-17T09:45:30.211Z,37.7
2023-03-17T09:46:47.931Z,38.3
2023-03-17T09:48:05.627Z,38.4
2023-03-17T09:49:22.522Z,37.9
2023-03-17T09:50:39.629Z,37.4
2023-03-17T09:51:56.602Z,37.3
2023-03-17T09:53:13.498Z,37.4
2023-03-17T09:54:30.598Z,37.6
2023-03-17T09:55:47.826Z,37.4
2023-03-17T09:57:04.591Z,37.5
2023-03-17T09:58:21.525Z,37.8
2023-03-17T09:59:38.855Z,37.8
2023-03-17T10:00:56.658Z,37.4
2023-03-17T10:02:14.686Z,37.5
2023-03-17T10:03:31.636Z,36.8
2023-03-17T10:04:48.775Z,35.9
2023-03-17T10:06:05.835Z,35.6
2023-03-17T10:07:24.304Z,35.6
2023-03-17T10:08:42.103Z,35.1
2023-03-17T10:09:59.762Z,35.2
2023-03-17T10:11:16.583Z,35.5
2023-03-17T10:12:33.596Z,35.9
2023-03-17T10:13:51.959Z,36.2
2023-03-17T10:15:08.669Z,36.2
2023-03-17T10:16:25.768Z,36.1
2023-03-17T10:17:42.574Z,36.2
2023-03-17T10:18:59.610Z,35.4
2023-03-17T10:20:16.717Z,35.2
2023-03-17T10:21:33.715Z,35.3
2023-03-17T10:22:50.636Z,35.6
2023-03-17T10:24:08.503Z,35.9
2023-03-17T10:25:25.635Z,35.6
2023-03-17T10:26:42.836Z,35.3
2023-03-17T10:27:59.647Z,34.8
2023-03-17T10:29:16.966Z,34.3
2023-03-17T10:30:34.916Z,34.4
2023-03-17T10:31:53.301Z,34.4
2023-03-17T10:33:11.457Z,34.5
2023-03-17T10:34:28.888Z,34.7
2023-03-17T10:35:46.173Z,34.8
2023-03-17T10:37:04.171Z,34.9
2023-03-17T10:38:22.062Z,34
2023-03-17T10:39:40.722Z,33.4
2023-03-17T10:40:58.248Z,33
2023-03-17T10:42:15.654Z,32.3
2023-03-17T10:43:33.602Z,32.1
2023-03-17T10:44:50.643Z,32.4
2023-03-17T10:46:07.892Z,32.2
2023-03-17T10:47:26.350Z,32.1
2023-03-17T10:48:43.980Z,32.1
2023-03-17T10:50:03.108Z,32.6
2023-03-17T10:51:21.127Z,33.4
2023-03-17T10:52:39.430Z,33.4
2023-03-17T10:53:57.183Z,33.7
2023-03-17T10:55:16.622Z,33.2
2023-03-17T10:56:34.276Z,32.4
2023-03-17T10:57:51.756Z,32.4
2023-03-17T10:59:08.687Z,32.5
2023-03-17T11:00:26.251Z,32.1
2023-03-17T11:01:44.250Z,32.1
2023-03-17T11:03:01.707Z,31.9
2023-03-17T11:04:18.727Z,32.2
2023-03-17T11:05:35.679Z,31.8
2023-03-17T11:06:53.324Z,32.4
2023-03-17T11:08:10.773Z,32.1
2023-03-17T11:09:27.667Z,32.2
2023-03-17T11:10:45.732Z,32.1
2023-03-17T11:12:02.701Z,32.3
2023-03-17T11:13:21.805Z,31.9
2023-03-17T11:14:38.744Z,32
2023-03-17T11:15:55.802Z,32.1
2023-03-17T11:17:13.475Z,32
2023-03-17T11:18:32.177Z,32.1
2023-03-17T11:19:48.719Z,32.5
2023-03-17T11:21:05.711Z,32.9
2023-03-17T11:22:22.722Z,32.6
2023-03-17T11:23:39.990Z,32.3
2023-03-17T11:24:56.747Z,32.9
2023-03-17T11:26:13.709Z,33.3
2023-03-17T11:27:31.767Z,33.2
2023-03-17T11:28:49.345Z,33.3
2023-03-17T11:30:06.817Z,33.4
2023-03-17T11:31:24.231Z,33
2023-03-17T11:32:41.873Z,33.1
2023-03-17T11:33:59.777Z,32.2
2023-03-17T11:35:16.853Z,32.4
2023-03-17T11:36:33.847Z,32.3
2023-03-17T11:37:51.074Z,32.3
2023-03-17T11:39:10.087Z,32.1
2023-03-17T11:40:27.440Z,32.1
2023-03-17T11:41:45.759Z,31.1
2023-03-17T11:43:02.807Z,30.9
2023-03-17T11:44:20.396Z,30.6
2023-03-17T11:45:37.946Z,30.6
2023-03-17T11:46:54.971Z,30.2
2023-03-17T11:48:12.831Z,30.8
2023-03-17T11:49:29.738Z,30.7
2023-03-17T11:50:46.802Z,30.7
2023-03-17T11:52:04.810Z,31
2023-03-17T11:53:21.737Z,30.4
2023-03-17T11:54:39.163Z,30.2
2023-03-17T11:55:56.787Z,30.5
2023-03-17T11:57:14.236Z,31.3
2023-03-17T11:58:32.343Z,31.8
2023-03-17T11:59:50.386Z,32
2023-03-17T12:01:08.375Z,31.6
2023-03-17T12:02:26.774Z,31.5
2023-03-17T12:03:43.889Z,31.7
2023-03-17T12:05:02.539Z,31.2
2023-03-17T12:06:19.948Z,31.1
2023-03-17T12:07:39.444Z,31.2
2023-03-17T12:08:57.141Z,31.1
2023-03-17T12:10:14.256Z,31.5
2023-03-17T12:11:32.064Z,31.6
2023-03-17T12:12:50.098Z,31.9
2023-03-17T12:14:07.827Z,32
2023-03-17T12:15:24.659Z,31.5
2023-03-17T12:16:41.777Z,31.2
2023-03-17T12:17:59.104Z,31.3
2023-03-17T12:19:17.291Z,31.1
2023-03-17T12:20:34.781Z,31.7
2023-03-17T12:21:51.817Z,31.1
2023-03-17T12:23:09.583Z,31.2
2023-03-17T12:24:26.953Z,31.7
2023-03-17T12:25:44.300Z,31.4
2023-03-17T12:27:02.567Z,31.4
2023-03-17T12:28:19.808Z,31.2
2023-03-17T12:29:37.540Z,30.9
2023-03-17T12:30:54.876Z,30.8
2023-03-17T12:32:12.971Z,31
2023-03-17T12:33:30.259Z,31.1
2023-03-17T12:34:51.471Z,31
2023-03-17T12:36:08.826Z,31.3
2023-03-17T12:37:25.831Z,31.3
2023-03-17T12:38:43.064Z,31
2023-03-17T12:40:01.626Z,30.9
2023-03-17T12:41:19.089Z,30.8
2023-03-17T12:42:37.324Z,31
2023-03-17T12:43:55.370Z,31
2023-03-17T12:45:13.156Z,31.6
2023-03-17T12:46:31.565Z,31
2023-03-17T12:47:49.431Z,31.3
2023-03-17T12:49:06.873Z,31.4
2023-03-17T12:50:23.843Z,31.3
2023-03-17T12:51:41.020Z,31.7
2023-03-17T12:52:58.072Z,31.6
2023-03-17T12:54:15.808Z,31.4
2023-03-17T12:55:33.194Z,30.8
2023-03-17T12:56:50.828Z,31.3
2023-03-17T12:58:07.854Z,31.1
2023-03-17T12:59:24.389Z,31.1
2023-03-17T13:00:41.507Z,31.6
2023-03-17T13:01:58.603Z,32
2023-03-17T13:03:15.499Z,32.7
2023-03-17T13:04:32.413Z,32.2
2023-03-17T13:05:49.478Z,31.3
2023-03-17T13:07:06.422Z,31.7
2023-03-17T13:08:23.420Z,31.9
2023-03-17T13:09:40.446Z,32.4
2023-03-17T13:10:57.795Z,32.6
2023-03-17T13:12:14.495Z,31.6
2023-03-17T13:13:31.413Z,31.4
2023-03-17T13:14:48.415Z,31.7
2023-03-17T13:16:05.495Z,31.5
2023-03-17T13:17:22.502Z,31.6
2023-03-17T13:18:39.406Z,31.6
2023-03-17T13:19:56.436Z,31.4
2023-03-17T13:21:13.447Z,31.2
2023-03-17T13:22:30.420Z,30.9
2023-03-17T13:23:47.557Z,30.7
2023-03-17T13:25:04.511Z,30.8
2023-03-17T13:26:21.480Z,31.1
2023-03-17T13:27:38.498Z,31.4
2023-03-17T13:28:55.505Z,31.9
2023-03-17T13:30:12.444Z,31.9
2023-03-17T13:31:29.558Z,31.2
2023-03-17T13:32:46.533Z,31.2
2023-03-17T13:34:03.481Z,30.8
2023-03-17T13:35:20.470Z,31.1
2023-03-17T13:36:37.456Z,31.2
2023-03-17T13:37:54.444Z,31.3
2023-03-17T13:39:19.131Z,31.3
2023-03-17T13:40:28.455Z,31.2
2023-03-17T13:41:45.743Z,30.9
2023-03-17T13:43:02.535Z,31
2023-03-17T13:44:19.526Z,31.3
2023-03-17T13:45:36.662Z,31.1
2023-03-17T13:46:53.566Z,31
2023-03-17T13:48:10.487Z,30.9
2023-03-17T13:49:27.529Z,30.6
2023-03-17T13:50:44.615Z,30.8
2023-03-17T13:52:01.464Z,30.6
2023-03-17T13:53:18.474Z,30.2
2023-03-17T13:54:35.559Z,30.2
2023-03-17T13:55:52.631Z,30.5
2023-03-17T13:57:09.556Z,30.3
2023-03-17T13:58:26.527Z,30.3
2023-03-17T13:59:43.535Z,30.3
2023-03-17T14:01:00.573Z,29.9
2023-03-17T14:02:17.508Z,30
2023-03-17T14:03:34.581Z,30.2
2023-03-17T14:04:51.491Z,30.1
2023-03-17T14:06:08.503Z,30.2
2023-03-17T14:07:25.524Z,30.9
2023-03-17T14:08:42.537Z,30.9
2023-03-17T14:09:59.507Z,30.5
2023-03-17T14:11:16.482Z,30.5
2023-03-17T14:12:33.497Z,30.3
2023-03-17T14:13:50.559Z,30.4
2023-03-17T14:15:08.454Z,30.3
2023-03-17T14:16:24.616Z,30.6
2023-03-17T14:17:41.529Z,30.6
2023-03-17T14:18:58.543Z,30.6
2023-03-17T14:20:15.587Z,30.8
2023-03-17T14:21:32.513Z,30.6
2023-03-17T14:22:50.782Z,30.3
2023-03-17T14:24:07.802Z,30.3
2023-03-17T14:25:26.500Z,30.4
2023-03-17T14:26:43.494Z,30.1
2023-03-17T14:28:00.575Z,30.5
2023-03-17T14:29:17.555Z,30.1
2023-03-17T14:30:34.560Z,30.2
2023-03-17T14:31:51.643Z,30.7
2023-03-17T14:33:08.577Z,30.7
2023-03-17T14:34:25.536Z,30.4
2023-03-17T14:35:42.622Z,30.4
2023-03-17T14:36:59.582Z,30.3
2023-03-17T14:38:16.564Z,30.1
2023-03-17T14:39:33.554Z,30
2023-03-17T14:40:50.590Z,30.2
2023-03-17T14:42:07.547Z,30.7
2023-03-17T14:43:24.562Z,31.1
2023-03-17T14:44:41.562Z,30.8
2023-03-17T14:45:58.789Z,30.5
2023-03-17T14:47:15.565Z,30.3
2023-03-17T14:48:33.261Z,30.4
2023-03-17T14:49:50.171Z,30.2
2023-03-17T14:51:10.236Z,30.5
2023-03-17T14:52:27.078Z,30.3
2023-03-17T14:53:44.348Z,30.4
2023-03-17T14:55:02.148Z,30.6
2023-03-17T14:56:19.770Z,31.1
2023-03-17T14:57:37.969Z,31.3
2023-03-17T14:58:54.836Z,31
2023-03-17T15:00:12.985Z,30.9
2023-03-17T15:01:30.496Z,30.9
2023-03-17T15:02:49.145Z,30.9
2023-03-17T15:04:07.056Z,30.8
2023-03-17T15:05:24.536Z,30.9
2023-03-17T15:06:43.819Z,31
2023-03-17T15:08:05.738Z,30.7
2023-03-17T15:09:27.276Z,30.7
2023-03-17T15:10:44.110Z,30.8
2023-03-17T15:12:02.178Z,31
2023-03-17T15:13:20.225Z,30.7
2023-03-17T15:14:37.399Z,30.8
2023-03-17T15:15:56.308Z,31
2023-03-17T15:17:13.180Z,31.4
2023-03-17T15:18:30.677Z,31.5
2023-03-17T15:19:48.147Z,31.4
2023-03-17T15:21:05.219Z,31.7
2023-03-17T15:22:22.979Z,32.1
2023-03-17T15:23:41.841Z,32.5
2023-03-17T15:25:00.863Z,32.8
2023-03-17T15:26:19.150Z,32.7
2023-03-17T15:27:36.373Z,32.8
2023-03-17T15:28:55.592Z,33.1
2023-03-17T15:30:14.029Z,33.5
2023-03-17T15:31:32.249Z,33.9
2023-03-17T15:32:50.245Z,34.2
2023-03-17T15:34:08.211Z,34.1
2023-03-17T15:35:26.132Z,34
2023-03-17T15:36:43.510Z,33.8
2023-03-17T15:38:01.368Z,33.7
2023-03-17T15:39:18.660Z,33.6
2023-03-17T15:40:36.147Z,33.7
2023-03-17T15:41:54.204Z,33.8
2023-03-17T15:43:14.500Z,33.9
2023-03-17T15:44:32.183Z,34
2023-03-17T15:45:49.170Z,33.8
2023-03-17T15:47:08.269Z,33.9
2023-03-17T15:48:25.146Z,34.4
2023-03-17T15:49:44.020Z,34.8
2023-03-17T15:51:03.481Z,35.2
2023-03-17T15:52:21.428Z,35.6
2023-03-17T15:53:39.093Z,35.6
2023-03-17T15:54:56.367Z,35.7
2023-03-17T15:56:14.528Z,36.1
2023-03-17T15:57:32.115Z,36.1
2023-03-17T15:58:49.177Z,36.1
2023-03-17T16:00:05.770Z,36.2
2023-03-17T16:01:22.848Z,36.2
2023-03-17T16:02:39.856Z,36
2023-03-17T16:03:56.909Z,36
2023-03-17T16:05:13.767Z,36.2
2023-03-17T16:06:30.818Z,36.4
2023-03-17T16:07:47.816Z,36.4
2023-03-17T16:09:05.053Z,36.7
2023-03-17T16:10:22.043Z,36.8
2023-03-17T16:11:40.466Z,37
2023-03-17T16:12:55.840Z,36.8
2023-03-17T16:14:13.163Z,36.8
2023-03-17T16:15:29.821Z,36.7
2023-03-17T16:16:46.888Z,36.6
2023-03-17T16:18:03.864Z,36.7
2023-03-17T16:19:20.844Z,36.8
2023-03-17T16:20:37.778Z,37
2023-03-17T16:21:55.041Z,37.1
2023-03-17T16:23:11.847Z,37.2
2023-03-17T16:24:28.686Z,37.3
2023-03-17T16:25:46.249Z,37.2
2023-03-17T16:27:02.699Z,37.3
2023-03-17T16:28:19.747Z,37
2023-03-17T16:29:36.751Z,37
2023-03-17T16:30:53.703Z,37.1
2023-03-17T16:32:10.759Z,37.2
2023-03-17T16:33:27.750Z,37.2
2023-03-17T16:34:45.278Z,37.4
2023-03-17T16:36:01.802Z,37.5
2023-03-17T16:37:18.719Z,37.4
2023-03-17T16:38:35.949Z,37.5
2023-03-17T16:39:52.759Z,37.5
2023-03-17T16:41:09.718Z,37.7
2023-03-17T16:42:26.732Z,37.5
2023-03-17T16:43:43.798Z,37.5
2023-03-17T16:45:00.737Z,37.5
2023-03-17T16:46:18.290Z,37.4
2023-03-17T16:48:04.857Z,37.5
2023-03-17T16:49:21.853Z,37.4
2023-03-17T16:50:38.750Z,37.3
2023-03-17T16:51:55.765Z,37.3
2023-03-17T16:53:12.790Z,37.4
2023-03-17T16:54:29.745Z,37.6
2023-03-17T16:55:46.785Z,37.7
2023-03-17T16:57:06.586Z,37.8
2023-03-17T16:58:21.787Z,38.1
2023-03-17T16:59:38.752Z,38.1
2023-03-17T17:00:55.773Z,38.3
2023-03-17T17:02:12.810Z,38.3
2023-03-17T17:03:29.908Z,38.2
2023-03-17T17:04:46.803Z,38.3
2023-03-17T17:06:03.846Z,38.5
2023-03-17T17:07:20.780Z,38.5
2023-03-17T17:08:38.132Z,38.7
2023-03-17T17:09:54.971Z,38.8
2023-03-17T17:11:11.800Z,38.7
2023-03-17T17:12:28.809Z,38.7
2023-03-17T17:13:45.981Z,38.7
2023-03-17T17:15:02.836Z,38.9
2023-03-17T17:16:19.973Z,39.1
2023-03-17T17:17:36.838Z,39
2023-03-17T17:18:53.810Z,38.8